sensor_id;sensor_type;location;lat;lon;timestamp;pressure;altitude;pressure_sealevel;temperature
10869;BMP180;62667;48.698;8.762;2024-01-30T00:01:30;97262.00;;;2.00
10869;BMP180;62667;48.698;8.762;2024-01-30T00:03:57;97257.00;;;2.10
10869;BMP180;62667;48.698;8.762;2024-01-30T00:06:24;97248.00;;;2.10
10869;BMP180;62667;48.698;8.762;2024-01-30T00:08:53;97243.00;;;2.00
10869;BMP180;62667;48.698;8.762;2024-01-30T00:11:20;97255.00;;;2.10
10869;BMP180;62667;48.698;8.762;2024-01-30T00:13:48;97240.00;;;2.10
10869;BMP180;62667;48.698;8.762;2024-01-30T00:16:21;97246.00;;;2.10
10869;BMP180;62667;48.698;8.762;2024-01-30T00:18:50;97236.00;;;2.10
10869;BMP180;62667;48.698;8.762;2024-01-30T00:21:17;97247.00;;;2.00
10869;BMP180;62667;48.698;8.762;2024-01-30T00:23:45;97243.00;;;2.00
10869;BMP180;62667;48.698;8.762;2024-01-30T00:26:14;97252.00;;;2.00
10869;BMP180;62667;48.698;8.762;2024-01-30T00:28:42;97260.00;;;2.10
10869;BMP180;62667;48.698;8.762;2024-01-30T00:31:09;97253.00;;;2.00
10869;BMP180;62667;48.698;8.762;2024-01-30T00:33:38;97261.00;;;2.00
10869;BMP180;62667;48.698;8.762;2024-01-30T00:36:10;97256.00;;;1.90
10869;BMP180;62667;48.698;8.762;2024-01-30T00:38:48;97266.00;;;1.80
10869;BMP180;62667;48.698;8.762;2024-01-30T00:41:20;97261.00;;;1.80
10869;BMP180;62667;48.698;8.762;2024-01-30T00:43:47;97258.00;;;1.70
10869;BMP180;62667;48.698;8.762;2024-01-30T00:46:14;97254.00;;;1.70
10869;BMP180;62667;48.698;8.762;2024-01-30T00:48:42;97255.00;;;1.60
10869;BMP180;62667;48.698;8.762;2024-01-30T00:51:09;97248.00;;;1.70
10869;BMP180;62667;48.698;8.762;2024-01-30T00:53:37;97254.00;;;1.60
10869;BMP180;62667;48.698;8.762;2024-01-30T00:56:10;97245.00;;;1.70
10869;BMP180;62667;48.698;8.762;2024-01-30T00:58:39;97245.00;;;1.70
10869;BMP180;62667;48.698;8.762;2024-01-30T01:01:06;97242.00;;;1.60
10869;BMP180;62667;48.698;8.762;2024-01-30T01:03:36;97238.00;;;1.70
10869;BMP180;62667;48.698;8.762;2024-01-30T01:06:04;97252.00;;;1.80
10869;BMP180;62667;48.698;8.762;2024-01-30T01:08:31;97240.00;;;1.70
10869;BMP180;62667;48.698;8.762;2024-01-30T01:10:59;97241.00;;;1.70
10869;BMP180;62667;48.698;8.762;2024-01-30T01:13:26;97245.00;;;1.70
10869;BMP180;62667;48.698;8.762;2024-01-30T01:15:55;97245.00;;;1.70
10869;BMP180;62667;48.698;8.762;2024-01-30T01:18:23;97238.00;;;1.20
10869;BMP180;62667;48.698;8.762;2024-01-30T01:20:50;97229.00;;;1.30
10869;BMP180;62667;48.698;8.762;2024-01-30T01:23:17;97241.00;;;1.20
10869;BMP180;62667;48.698;8.762;2024-01-30T01:25:45;97246.00;;;1.20
10869;BMP180;62667;48.698;8.762;2024-01-30T01:28:12;97237.00;;;1.20
10869;BMP180;62667;48.698;8.762;2024-01-30T01:30:40;97241.00;;;1.30
10869;BMP180;62667;48.698;8.762;2024-01-30T01:33:09;97252.00;;;1.40
10869;BMP180;62667;48.698;8.762;2024-01-30T01:35:39;97242.00;;;1.30
10869;BMP180;62667;48.698;8.762;2024-01-30T01:38:06;97249.00;;;1.10
10869;BMP180;62667;48.698;8.762;2024-01-30T01:40:34;97240.00;;;1.20
10869;BMP180;62667;48.698;8.762;2024-01-30T01:43:03;97243.00;;;1.20
10869;BMP180;62667;48.698;8.762;2024-01-30T01:45:31;97242.00;;;1.20
10869;BMP180;62667;48.698;8.762;2024-01-30T01:47:59;97239.00;;;1.20
10869;BMP180;62667;48.698;8.762;2024-01-30T01:50:27;97239.00;;;1.20
10869;BMP180;62667;48.698;8.762;2024-01-30T01:52:55;97236.00;;;1.20
10869;BMP180;62667;48.698;8.762;2024-01-30T01:55:22;97239.00;;;1.20
10869;BMP180;62667;48.698;8.762;2024-01-30T01:57:52;97239.00;;;1.20
10869;BMP180;62667;48.698;8.762;2024-01-30T02:00:20;97239.00;;;1.20
10869;BMP180;62667;48.698;8.762;2024-01-30T02:02:48;97236.00;;;1.30
10869;BMP180;62667;48.698;8.762;2024-01-30T02:05:16;97244.00;;;1.30
10869;BMP180;62667;48.698;8.762;2024-01-30T02:07:45;97237.00;;;1.00
10869;BMP180;62667;48.698;8.762;2024-01-30T02:10:14;97237.00;;;0.90
10869;BMP180;62667;48.698;8.762;2024-01-30T02:12:42;97241.00;;;1.10
10869;BMP180;62667;48.698;8.762;2024-01-30T02:15:12;97236.00;;;1.10
10869;BMP180;62667;48.698;8.762;2024-01-30T02:17:40;97239.00;;;1.00
10869;BMP180;62667;48.698;8.762;2024-01-30T02:20:10;97233.00;;;1.00
10869;BMP180;62667;48.698;8.762;2024-01-30T02:22:42;97241.00;;;1.00
10869;BMP180;62667;48.698;8.762;2024-01-30T02:25:10;97243.00;;;1.10
10869;BMP180;62667;48.698;8.762;2024-01-30T02:27:37;97244.00;;;1.10
10869;BMP180;62667;48.698;8.762;2024-01-30T02:30:06;97244.00;;;1.00
10869;BMP180;62667;48.698;8.762;2024-01-30T02:32:33;97247.00;;;1.00
10869;BMP180;62667;48.698;8.762;2024-01-30T02:35:01;97248.00;;;1.00
10869;BMP180;62667;48.698;8.762;2024-01-30T02:37:28;97248.00;;;0.90
10869;BMP180;62667;48.698;8.762;2024-01-30T02:39:58;97235.00;;;0.80
10869;BMP180;62667;48.698;8.762;2024-01-30T02:42:26;97242.00;;;0.60
10869;BMP180;62667;48.698;8.762;2024-01-30T02:44:54;97248.00;;;0.60
10869;BMP180;62667;48.698;8.762;2024-01-30T02:47:21;97246.00;;;0.50
10869;BMP180;62667;48.698;8.762;2024-01-30T02:49:48;97245.00;;;0.50
10869;BMP180;62667;48.698;8.762;2024-01-30T02:52:16;97252.00;;;0.60
10869;BMP180;62667;48.698;8.762;2024-01-30T02:54:43;97245.00;;;0.70
10869;BMP180;62667;48.698;8.762;2024-01-30T02:57:12;97245.00;;;0.70
10869;BMP180;62667;48.698;8.762;2024-01-30T02:59:39;97243.00;;;0.70
10869;BMP180;62667;48.698;8.762;2024-01-30T03:02:09;97249.00;;;0.70
10869;BMP180;62667;48.698;8.762;2024-01-30T03:04:37;97242.00;;;0.70
10869;BMP180;62667;48.698;8.762;2024-01-30T03:07:04;97243.00;;;0.80
10869;BMP180;62667;48.698;8.762;2024-01-30T03:09:32;97252.00;;;0.80
10869;BMP180;62667;48.698;8.762;2024-01-30T03:12:04;97238.00;;;0.80
10869;BMP180;62667;48.698;8.762;2024-01-30T03:14:33;97241.00;;;0.80
10869;BMP180;62667;48.698;8.762;2024-01-30T03:17:00;97241.00;;;0.80
10869;BMP180;62667;48.698;8.762;2024-01-30T03:19:28;97240.00;;;0.80
10869;BMP180;62667;48.698;8.762;2024-01-30T03:21:56;97240.00;;;0.80
10869;BMP180;62667;48.698;8.762;2024-01-30T03:24:25;97241.00;;;0.80
10869;BMP180;62667;48.698;8.762;2024-01-30T03:26:53;97239.00;;;0.90
10869;BMP180;62667;48.698;8.762;2024-01-30T03:29:20;97230.00;;;0.80
10869;BMP180;62667;48.698;8.762;2024-01-30T03:31:49;97232.00;;;0.80
10869;BMP180;62667;48.698;8.762;2024-01-30T03:34:16;97234.00;;;0.80
10869;BMP180;62667;48.698;8.762;2024-01-30T03:36:44;97232.00;;;0.70
10869;BMP180;62667;48.698;8.762;2024-01-30T03:39:11;97230.00;;;0.70
10869;BMP180;62667;48.698;8.762;2024-01-30T03:41:41;97235.00;;;0.70
10869;BMP180;62667;48.698;8.762;2024-01-30T03:44:08;97227.00;;;0.70
10869;BMP180;62667;48.698;8.762;2024-01-30T03:46:36;97227.00;;;0.70
10869;BMP180;62667;48.698;8.762;2024-01-30T03:49:05;97234.00;;;0.60
10869;BMP180;62667;48.698;8.762;2024-01-30T03:51:32;97239.00;;;0.60
10869;BMP180;62667;48.698;8.762;2024-01-30T03:53:59;97231.00;;;0.70
10869;BMP180;62667;48.698;8.762;2024-01-30T03:56:28;97227.00;;;0.70
10869;BMP180;62667;48.698;8.762;2024-01-30T03:58:55;97234.00;;;0.70
10869;BMP180;62667;48.698;8.762;2024-01-30T04:01:23;97228.00;;;0.60
10869;BMP180;62667;48.698;8.762;2024-01-30T04:03:50;97228.00;;;0.80
10869;BMP180;62667;48.698;8.762;2024-01-30T04:06:19;97227.00;;;0.70
10869;BMP180;62667;48.698;8.762;2024-01-30T04:08:46;97237.00;;;0.60
10869;BMP180;62667;48.698;8.762;2024-01-30T04:11:13;97225.00;;;0.60
10869;BMP180;62667;48.698;8.762;2024-01-30T04:13:44;97230.00;;;0.60
10869;BMP180;62667;48.698;8.762;2024-01-30T04:16:20;97236.00;;;0.60
10869;BMP180;62667;48.698;8.762;2024-01-30T04:18:48;97232.00;;;0.50
10869;BMP180;62667;48.698;8.762;2024-01-30T04:21:15;97238.00;;;0.60
10869;BMP180;62667;48.698;8.762;2024-01-30T04:23:44;97242.00;;;0.60
10869;BMP180;62667;48.698;8.762;2024-01-30T04:26:11;97235.00;;;0.60
10869;BMP180;62667;48.698;8.762;2024-01-30T04:28:40;97229.00;;;0.60
10869;BMP180;62667;48.698;8.762;2024-01-30T04:31:08;97235.00;;;0.60
10869;BMP180;62667;48.698;8.762;2024-01-30T04:33:35;97239.00;;;0.50
10869;BMP180;62667;48.698;8.762;2024-01-30T04:36:08;97239.00;;;0.50
10869;BMP180;62667;48.698;8.762;2024-01-30T04:38:38;97241.00;;;0.50
10869;BMP180;62667;48.698;8.762;2024-01-30T04:41:08;97233.00;;;0.60
10869;BMP180;62667;48.698;8.762;2024-01-30T04:43:35;97242.00;;;0.60
10869;BMP180;62667;48.698;8.762;2024-01-30T04:46:03;97238.00;;;0.50
10869;BMP180;62667;48.698;8.762;2024-01-30T04:48:31;97233.00;;;0.50
10869;BMP180;62667;48.698;8.762;2024-01-30T04:50:59;97233.00;;;0.60
10869;BMP180;62667;48.698;8.762;2024-01-30T04:53:29;97219.00;;;0.60
10869;BMP180;62667;48.698;8.762;2024-01-30T04:55:58;97222.00;;;0.40
10869;BMP180;62667;48.698;8.762;2024-01-30T04:58:27;97235.00;;;0.50
10869;BMP180;62667;48.698;8.762;2024-01-30T05:00:54;97229.00;;;0.50
10869;BMP180;62667;48.698;8.762;2024-01-30T05:03:22;97226.00;;;0.40
10869;BMP180;62667;48.698;8.762;2024-01-30T05:05:50;97224.00;;;0.40
10869;BMP180;62667;48.698;8.762;2024-01-30T05:08:17;97235.00;;;0.30
10869;BMP180;62667;48.698;8.762;2024-01-30T05:10:45;97229.00;;;0.30
10869;BMP180;62667;48.698;8.762;2024-01-30T05:13:12;97236.00;;;0.10
10869;BMP180;62667;48.698;8.762;2024-01-30T05:15:41;97230.00;;;0.20
10869;BMP180;62667;48.698;8.762;2024-01-30T05:18:09;97233.00;;;0.20
10869;BMP180;62667;48.698;8.762;2024-01-30T05:20:36;97225.00;;;0.20
10869;BMP180;62667;48.698;8.762;2024-01-30T05:23:03;97225.00;;;0.20
10869;BMP180;62667;48.698;8.762;2024-01-30T05:25:31;97236.00;;;0.30
10869;BMP180;62667;48.698;8.762;2024-01-30T05:28:00;97236.00;;;0.10
10869;BMP180;62667;48.698;8.762;2024-01-30T05:30:27;97233.00;;;0.00
10869;BMP180;62667;48.698;8.762;2024-01-30T05:32:56;97235.00;;;0.00
10869;BMP180;62667;48.698;8.762;2024-01-30T05:35:24;97236.00;;;0.10
10869;BMP180;62667;48.698;8.762;2024-01-30T05:37:51;97239.00;;;0.10
10869;BMP180;62667;48.698;8.762;2024-01-30T05:40:18;97231.00;;;0.20
10869;BMP180;62667;48.698;8.762;2024-01-30T05:42:46;97252.00;;;0.10
10869;BMP180;62667;48.698;8.762;2024-01-30T05:45:13;97241.00;;;0.20
10869;BMP180;62667;48.698;8.762;2024-01-30T05:47:40;97242.00;;;0.30
10869;BMP180;62667;48.698;8.762;2024-01-30T05:50:09;97254.00;;;0.30
10869;BMP180;62667;48.698;8.762;2024-01-30T05:52:37;97241.00;;;0.20
10869;BMP180;62667;48.698;8.762;2024-01-30T05:55:05;97246.00;;;0.30
10869;BMP180;62667;48.698;8.762;2024-01-30T05:57:37;97254.00;;;0.30
10869;BMP180;62667;48.698;8.762;2024-01-30T06:00:05;97245.00;;;0.20
10869;BMP180;62667;48.698;8.762;2024-01-30T06:02:36;97248.00;;;0.20
10869;BMP180;62667;48.698;8.762;2024-01-30T06:05:04;97258.00;;;0.30
10869;BMP180;62667;48.698;8.762;2024-01-30T06:07:32;97259.00;;;0.30
10869;BMP180;62667;48.698;8.762;2024-01-30T06:10:06;97252.00;;;0.20
10869;BMP180;62667;48.698;8.762;2024-01-30T06:12:34;97260.00;;;0.20
10869;BMP180;62667;48.698;8.762;2024-01-30T06:15:03;97254.00;;;0.20
10869;BMP180;62667;48.698;8.762;2024-01-30T06:17:36;97256.00;;;0.60
10869;BMP180;62667;48.698;8.762;2024-01-30T06:20:08;97255.00;;;0.80
10869;BMP180;62667;48.698;8.762;2024-01-30T06:22:37;97264.00;;;1.00
10869;BMP180;62667;48.698;8.762;2024-01-30T06:25:05;97247.00;;;0.90
10869;BMP180;62667;48.698;8.762;2024-01-30T06:27:33;97260.00;;;1.20
10869;BMP180;62667;48.698;8.762;2024-01-30T06:30:00;97249.00;;;1.10
10869;BMP180;62667;48.698;8.762;2024-01-30T06:32:28;97258.00;;;0.90
10869;BMP180;62667;48.698;8.762;2024-01-30T06:35:00;97249.00;;;0.80
10869;BMP180;62667;48.698;8.762;2024-01-30T06:37:28;97256.00;;;0.60
10869;BMP180;62667;48.698;8.762;2024-01-30T06:39:56;97254.00;;;0.60
10869;BMP180;62667;48.698;8.762;2024-01-30T06:42:24;97253.00;;;0.50
10869;BMP180;62667;48.698;8.762;2024-01-30T06:44:51;97265.00;;;0.40
10869;BMP180;62667;48.698;8.762;2024-01-30T06:47:18;97255.00;;;0.40
10869;BMP180;62667;48.698;8.762;2024-01-30T06:49:46;97261.00;;;0.30
10869;BMP180;62667;48.698;8.762;2024-01-30T06:52:14;97267.00;;;0.30
10869;BMP180;62667;48.698;8.762;2024-01-30T06:54:41;97272.00;;;0.20
10869;BMP180;62667;48.698;8.762;2024-01-30T06:57:10;97266.00;;;0.30
10869;BMP180;62667;48.698;8.762;2024-01-30T06:59:38;97265.00;;;0.30
10869;BMP180;62667;48.698;8.762;2024-01-30T07:02:09;97258.00;;;0.10
10869;BMP180;62667;48.698;8.762;2024-01-30T07:04:37;97258.00;;;0.20
10869;BMP180;62667;48.698;8.762;2024-01-30T07:07:11;97268.00;;;0.20
10869;BMP180;62667;48.698;8.762;2024-01-30T07:09:50;97271.00;;;0.00
10869;BMP180;62667;48.698;8.762;2024-01-30T07:12:24;97276.00;;;0.00
10869;BMP180;62667;48.698;8.762;2024-01-30T07:14:52;97268.00;;;0.10
10869;BMP180;62667;48.698;8.762;2024-01-30T07:17:19;97268.00;;;0.00
10869;BMP180;62667;48.698;8.762;2024-01-30T07:19:47;97265.00;;;0.00
10869;BMP180;62667;48.698;8.762;2024-01-30T07:22:14;97268.00;;;0.00
10869;BMP180;62667;48.698;8.762;2024-01-30T07:24:43;97263.00;;;0.10
10869;BMP180;62667;48.698;8.762;2024-01-30T07:27:14;97268.00;;;0.20
10869;BMP180;62667;48.698;8.762;2024-01-30T07:29:44;97273.00;;;0.30
10869;BMP180;62667;48.698;8.762;2024-01-30T07:32:12;97276.00;;;0.50
10869;BMP180;62667;48.698;8.762;2024-01-30T07:34:39;97273.00;;;0.50
10869;BMP180;62667;48.698;8.762;2024-01-30T07:37:07;97268.00;;;0.50
10869;BMP180;62667;48.698;8.762;2024-01-30T07:39:36;97267.00;;;0.40
10869;BMP180;62667;48.698;8.762;2024-01-30T07:42:03;97279.00;;;0.50
10869;BMP180;62667;48.698;8.762;2024-01-30T07:44:31;97276.00;;;0.40
10869;BMP180;62667;48.698;8.762;2024-01-30T07:47:00;97278.00;;;0.50
10869;BMP180;62667;48.698;8.762;2024-01-30T07:49:27;97273.00;;;0.60
10869;BMP180;62667;48.698;8.762;2024-01-30T07:51:55;97271.00;;;0.60
10869;BMP180;62667;48.698;8.762;2024-01-30T07:54:22;97264.00;;;0.70
10869;BMP180;62667;48.698;8.762;2024-01-30T07:56:50;97267.00;;;0.80
10869;BMP180;62667;48.698;8.762;2024-01-30T07:59:17;97276.00;;;0.80
10869;BMP180;62667;48.698;8.762;2024-01-30T08:01:47;97285.00;;;0.80
10869;BMP180;62667;48.698;8.762;2024-01-30T08:04:16;97282.00;;;0.90
10869;BMP180;62667;48.698;8.762;2024-01-30T08:06:44;97280.00;;;0.70
10869;BMP180;62667;48.698;8.762;2024-01-30T08:09:11;97274.00;;;0.90
10869;BMP180;62667;48.698;8.762;2024-01-30T08:11:39;97273.00;;;1.00
10869;BMP180;62667;48.698;8.762;2024-01-30T08:14:06;97273.00;;;1.10
10869;BMP180;62667;48.698;8.762;2024-01-30T08:16:37;97267.00;;;1.20
10869;BMP180;62667;48.698;8.762;2024-01-30T08:19:04;97275.00;;;1.40
10869;BMP180;62667;48.698;8.762;2024-01-30T08:21:33;97269.00;;;1.50
10869;BMP180;62667;48.698;8.762;2024-01-30T08:24:03;97267.00;;;1.50
10869;BMP180;62667;48.698;8.762;2024-01-30T08:26:31;97261.00;;;1.70
10869;BMP180;62667;48.698;8.762;2024-01-30T08:28:58;97270.00;;;1.70
10869;BMP180;62667;48.698;8.762;2024-01-30T08:31:26;97275.00;;;1.80
10869;BMP180;62667;48.698;8.762;2024-01-30T08:33:54;97276.00;;;1.90
10869;BMP180;62667;48.698;8.762;2024-01-30T08:36:21;97266.00;;;1.90
10869;BMP180;62667;48.698;8.762;2024-01-30T08:38:53;97274.00;;;2.00
10869;BMP180;62667;48.698;8.762;2024-01-30T08:41:20;97282.00;;;2.00
10869;BMP180;62667;48.698;8.762;2024-01-30T08:43:48;97280.00;;;2.00
10869;BMP180;62667;48.698;8.762;2024-01-30T08:46:18;97276.00;;;2.10
10869;BMP180;62667;48.698;8.762;2024-01-30T08:48:45;97282.00;;;2.30
10869;BMP180;62667;48.698;8.762;2024-01-30T08:51:13;97277.00;;;2.20
10869;BMP180;62667;48.698;8.762;2024-01-30T08:53:41;97276.00;;;2.30
10869;BMP180;62667;48.698;8.762;2024-01-30T08:56:10;97272.00;;;2.30
10869;BMP180;62667;48.698;8.762;2024-01-30T08:58:38;97284.00;;;2.40
10869;BMP180;62667;48.698;8.762;2024-01-30T09:01:05;97272.00;;;2.30
10869;BMP180;62667;48.698;8.762;2024-01-30T09:03:33;97286.00;;;2.40
10869;BMP180;62667;48.698;8.762;2024-01-30T09:06:01;97280.00;;;2.50
10869;BMP180;62667;48.698;8.762;2024-01-30T09:08:31;97281.00;;;2.60
10869;BMP180;62667;48.698;8.762;2024-01-30T09:10:58;97276.00;;;2.40
10869;BMP180;62667;48.698;8.762;2024-01-30T09:13:27;97285.00;;;2.60
10869;BMP180;62667;48.698;8.762;2024-01-30T09:15:55;97280.00;;;2.70
10869;BMP180;62667;48.698;8.762;2024-01-30T09:18:22;97278.00;;;2.80
10869;BMP180;62667;48.698;8.762;2024-01-30T09:20:50;97276.00;;;3.00
10869;BMP180;62667;48.698;8.762;2024-01-30T09:23:17;97277.00;;;2.90
10869;BMP180;62667;48.698;8.762;2024-01-30T09:25:45;97275.00;;;3.00
10869;BMP180;62667;48.698;8.762;2024-01-30T09:28:13;97281.00;;;3.10
10869;BMP180;62667;48.698;8.762;2024-01-30T09:30:42;97282.00;;;3.20
10869;BMP180;62667;48.698;8.762;2024-01-30T09:33:09;97286.00;;;3.20
10869;BMP180;62667;48.698;8.762;2024-01-30T09:35:37;97286.00;;;3.10
10869;BMP180;62667;48.698;8.762;2024-01-30T09:38:04;97289.00;;;3.10
10869;BMP180;62667;48.698;8.762;2024-01-30T09:40:32;97286.00;;;3.20
10869;BMP180;62667;48.698;8.762;2024-01-30T09:43:00;97297.00;;;3.40
10869;BMP180;62667;48.698;8.762;2024-01-30T09:45:27;97300.00;;;3.30
10869;BMP180;62667;48.698;8.762;2024-01-30T09:47:58;97305.00;;;3.50
10869;BMP180;62667;48.698;8.762;2024-01-30T09:50:27;97299.00;;;3.50
10869;BMP180;62667;48.698;8.762;2024-01-30T09:52:56;97298.00;;;3.80
10869;BMP180;62667;48.698;8.762;2024-01-30T09:55:24;97309.00;;;3.80
10869;BMP180;62667;48.698;8.762;2024-01-30T09:57:52;97304.00;;;3.90
10869;BMP180;62667;48.698;8.762;2024-01-30T10:00:20;97297.00;;;4.00
10869;BMP180;62667;48.698;8.762;2024-01-30T10:02:52;97306.00;;;4.20
10869;BMP180;62667;48.698;8.762;2024-01-30T10:05:27;97305.00;;;4.40
10869;BMP180;62667;48.698;8.762;2024-01-30T10:07:56;97308.00;;;4.60
10869;BMP180;62667;48.698;8.762;2024-01-30T10:10:24;97310.00;;;4.70
10869;BMP180;62667;48.698;8.762;2024-01-30T10:12:52;97297.00;;;4.80
10869;BMP180;62667;48.698;8.762;2024-01-30T10:15:20;97290.00;;;4.90
10869;BMP180;62667;48.698;8.762;2024-01-30T10:17:47;97302.00;;;5.00
10869;BMP180;62667;48.698;8.762;2024-01-30T10:20:14;97300.00;;;5.10
10869;BMP180;62667;48.698;8.762;2024-01-30T10:22:45;97294.00;;;5.20
10869;BMP180;62667;48.698;8.762;2024-01-30T10:25:12;97287.00;;;5.30
10869;BMP180;62667;48.698;8.762;2024-01-30T10:27:42;97289.00;;;5.60
10869;BMP180;62667;48.698;8.762;2024-01-30T10:30:10;97284.00;;;5.70
10869;BMP180;62667;48.698;8.762;2024-01-30T10:32:38;97285.00;;;5.90
10869;BMP180;62667;48.698;8.762;2024-01-30T10:35:05;97288.00;;;6.10
10869;BMP180;62667;48.698;8.762;2024-01-30T10:37:33;97289.00;;;6.20
10869;BMP180;62667;48.698;8.762;2024-01-30T10:40:04;97287.00;;;6.30
10869;BMP180;62667;48.698;8.762;2024-01-30T10:42:32;97291.00;;;6.40
10869;BMP180;62667;48.698;8.762;2024-01-30T10:45:09;97284.00;;;6.40
10869;BMP180;62667;48.698;8.762;2024-01-30T10:47:40;97286.00;;;6.40
10869;BMP180;62667;48.698;8.762;2024-01-30T10:50:09;97286.00;;;6.10
10869;BMP180;62667;48.698;8.762;2024-01-30T10:52:37;97281.00;;;6.20
10869;BMP180;62667;48.698;8.762;2024-01-30T10:55:07;97285.00;;;6.30
10869;BMP180;62667;48.698;8.762;2024-01-30T10:57:35;97280.00;;;6.50
10869;BMP180;62667;48.698;8.762;2024-01-30T11:00:05;97270.00;;;6.70
10869;BMP180;62667;48.698;8.762;2024-01-30T11:02:37;97280.00;;;6.90
10869;BMP180;62667;48.698;8.762;2024-01-30T11:05:06;97268.00;;;7.10
10869;BMP180;62667;48.698;8.762;2024-01-30T11:07:34;97263.00;;;7.30
10869;BMP180;62667;48.698;8.762;2024-01-30T11:10:03;97263.00;;;7.40
10869;BMP180;62667;48.698;8.762;2024-01-30T11:12:33;97275.00;;;7.60
10869;BMP180;62667;48.698;8.762;2024-01-30T11:15:05;97265.00;;;7.30
10869;BMP180;62667;48.698;8.762;2024-01-30T11:17:49;97263.00;;;7.50
10869;BMP180;62667;48.698;8.762;2024-01-30T11:20:19;97262.00;;;7.60
10869;BMP180;62667;48.698;8.762;2024-01-30T11:22:49;97265.00;;;7.70
10869;BMP180;62667;48.698;8.762;2024-01-30T11:25:17;97264.00;;;7.70
10869;BMP180;62667;48.698;8.762;2024-01-30T11:27:50;97268.00;;;7.90
10869;BMP180;62667;48.698;8.762;2024-01-30T11:30:25;97265.00;;;7.90
10869;BMP180;62667;48.698;8.762;2024-01-30T11:33:00;97260.00;;;8.00
10869;BMP180;62667;48.698;8.762;2024-01-30T11:35:27;97258.00;;;8.30
10869;BMP180;62667;48.698;8.762;2024-01-30T11:37:58;97259.00;;;8.50
10869;BMP180;62667;48.698;8.762;2024-01-30T11:40:29;97252.00;;;8.70
10869;BMP180;62667;48.698;8.762;2024-01-30T11:42:59;97258.00;;;8.80
10869;BMP180;62667;48.698;8.762;2024-01-30T11:45:30;97248.00;;;9.10
10869;BMP180;62667;48.698;8.762;2024-01-30T11:47:58;97247.00;;;9.20
10869;BMP180;62667;48.698;8.762;2024-01-30T11:50:27;97252.00;;;9.40
10869;BMP180;62667;48.698;8.762;2024-01-30T11:52:55;97247.00;;;9.70
10869;BMP180;62667;48.698;8.762;2024-01-30T11:55:23;97238.00;;;10.00
10869;BMP180;62667;48.698;8.762;2024-01-30T11:57:54;97223.00;;;10.50
10869;BMP180;62667;48.698;8.762;2024-01-30T12:00:24;97224.00;;;11.10
10869;BMP180;62667;48.698;8.762;2024-01-30T12:02:52;97228.00;;;11.70
10869;BMP180;62667;48.698;8.762;2024-01-30T12:05:22;97215.00;;;13.00
10869;BMP180;62667;48.698;8.762;2024-01-30T12:07:50;97201.00;;;13.50
10869;BMP180;62667;48.698;8.762;2024-01-30T12:10:18;97214.00;;;14.10
10869;BMP180;62667;48.698;8.762;2024-01-30T12:12:47;97219.00;;;14.80
10869;BMP180;62667;48.698;8.762;2024-01-30T12:15:15;97210.00;;;15.00
10869;BMP180;62667;48.698;8.762;2024-01-30T12:17:44;97212.00;;;15.10
10869;BMP180;62667;48.698;8.762;2024-01-30T12:20:12;97211.00;;;15.30
10869;BMP180;62667;48.698;8.762;2024-01-30T12:22:41;97191.00;;;15.90
10869;BMP180;62667;48.698;8.762;2024-01-30T12:25:09;97186.00;;;17.30
10869;BMP180;62667;48.698;8.762;2024-01-30T12:27:36;97171.00;;;18.70
10869;BMP180;62667;48.698;8.762;2024-01-30T12:30:06;97175.00;;;19.70
10869;BMP180;62667;48.698;8.762;2024-01-30T12:32:35;97168.00;;;20.90
10869;BMP180;62667;48.698;8.762;2024-01-30T12:35:07;97163.00;;;22.00
10869;BMP180;62667;48.698;8.762;2024-01-30T12:37:37;97171.00;;;22.50
10869;BMP180;62667;48.698;8.762;2024-01-30T12:40:07;97168.00;;;23.00
10869;BMP180;62667;48.698;8.762;2024-01-30T12:42:39;97171.00;;;21.90
10869;BMP180;62667;48.698;8.762;2024-01-30T12:45:08;97175.00;;;22.20
10869;BMP180;62667;48.698;8.762;2024-01-30T12:47:36;97179.00;;;22.20
10869;BMP180;62667;48.698;8.762;2024-01-30T12:50:05;97176.00;;;22.50
10869;BMP180;62667;48.698;8.762;2024-01-30T12:52:33;97197.00;;;21.40
10869;BMP180;62667;48.698;8.762;2024-01-30T12:55:02;97186.00;;;22.80
10869;BMP180;62667;48.698;8.762;2024-01-30T12:57:31;97184.00;;;22.00
10869;BMP180;62667;48.698;8.762;2024-01-30T12:59:58;97190.00;;;21.10
10869;BMP180;62667;48.698;8.762;2024-01-30T13:02:26;97167.00;;;22.00
10869;BMP180;62667;48.698;8.762;2024-01-30T13:05:01;97184.00;;;21.90
10869;BMP180;62667;48.698;8.762;2024-01-30T13:07:29;97200.00;;;21.20
10869;BMP180;62667;48.698;8.762;2024-01-30T13:09:57;97176.00;;;21.50
10869;BMP180;62667;48.698;8.762;2024-01-30T13:12:29;97181.00;;;25.00
10869;BMP180;62667;48.698;8.762;2024-01-30T13:14:58;97214.00;;;25.10
10869;BMP180;62667;48.698;8.762;2024-01-30T13:17:27;97200.00;;;20.20
10869;BMP180;62667;48.698;8.762;2024-01-30T13:19:54;97209.00;;;21.10
10869;BMP180;62667;48.698;8.762;2024-01-30T13:22:22;97203.00;;;22.10
10869;BMP180;62667;48.698;8.762;2024-01-30T13:24:51;97193.00;;;22.60
10869;BMP180;62667;48.698;8.762;2024-01-30T13:27:20;97225.00;;;22.00
10869;BMP180;62667;48.698;8.762;2024-01-30T13:29:47;97228.00;;;21.40
10869;BMP180;62667;48.698;8.762;2024-01-30T13:32:15;97215.00;;;20.20
10869;BMP180;62667;48.698;8.762;2024-01-30T13:34:42;97220.00;;;19.80
10869;BMP180;62667;48.698;8.762;2024-01-30T13:37:10;97213.00;;;19.30
10869;BMP180;62667;48.698;8.762;2024-01-30T13:39:37;97221.00;;;20.00
10869;BMP180;62667;48.698;8.762;2024-01-30T13:42:06;97223.00;;;19.90
10869;BMP180;62667;48.698;8.762;2024-01-30T13:44:35;97223.00;;;18.80
10869;BMP180;62667;48.698;8.762;2024-01-30T13:47:03;97224.00;;;18.10
10869;BMP180;62667;48.698;8.762;2024-01-30T13:49:30;97226.00;;;17.90
10869;BMP180;62667;48.698;8.762;2024-01-30T13:51:58;97232.00;;;17.20
10869;BMP180;62667;48.698;8.762;2024-01-30T13:54:25;97232.00;;;16.40
10869;BMP180;62667;48.698;8.762;2024-01-30T13:56:53;97229.00;;;16.30
10869;BMP180;62667;48.698;8.762;2024-01-30T13:59:22;97235.00;;;15.80
10869;BMP180;62667;48.698;8.762;2024-01-30T14:01:51;97225.00;;;16.20
10869;BMP180;62667;48.698;8.762;2024-01-30T14:04:19;97224.00;;;16.90
10869;BMP180;62667;48.698;8.762;2024-01-30T14:06:46;97212.00;;;17.50
10869;BMP180;62667;48.698;8.762;2024-01-30T14:09:14;97215.00;;;17.60
10869;BMP180;62667;48.698;8.762;2024-01-30T14:11:42;97230.00;;;18.30
10869;BMP180;62667;48.698;8.762;2024-01-30T14:14:09;97242.00;;;17.70
10869;BMP180;62667;48.698;8.762;2024-01-30T14:16:38;97249.00;;;17.40
10869;BMP180;62667;48.698;8.762;2024-01-30T14:19:06;97252.00;;;16.70
10869;BMP180;62667;48.698;8.762;2024-01-30T14:21:33;97258.00;;;15.90
10869;BMP180;62667;48.698;8.762;2024-01-30T14:24:03;97260.00;;;15.50
10869;BMP180;62667;48.698;8.762;2024-01-30T14:26:31;97257.00;;;14.90